LXGBLPFR

Guest
Details From LXGB - Gibraltar
To LPFR - Faro
Flight Number -
Tags generated
Created
Modified
Stats Distance 137 nm / 254 km
Max Altitude 9,500 ft / 2,896 m
Waypoints 4
Social Downloads 8
Likes 0
Share

Download

Looking for another format? Having issues loading an existing format? Contact us
Advertisement - Login to hide

Notes

Basic altitude profile: - Ascent Rate: 2500ft/min - Ascent Speed: 250kts - Cruise Altitude: 35000ft - Cruise Speed: 420kts - Descent Rate: 1500ft/min - Descent Speed: 250kts Options: - Use NATs: yes - Use PACOTS: yes - Use low airways: yes - Use high airways: yes

Route

LXGB PIREN W1 VFA LPFR

ID Type Via Altitude (ft/m) Position (lat/lon) Dist (leg/tot) Name
O LXGB APT - 0 / 0 36.15121 / -5.34966 - / 0 nm Gibraltar
PIREN FIX - 6,500 / 1,981 36.83333 / -7.38333 106 / 106 nm
VFA VOR W1 (AWY-LO) 9,500 / 2,896 37.01352 / -7.97501 30 / 136 nm FARO VOR-DME
O LPFR APT - 0 / 0 37.01534 / -7.97233 0 / 136 nm Faro

Altitude Profile

Advertisement - Login to hide

LXGB

Details ICAO LXGB (GIB)
Name Gibraltar
Region Gibralter
Timezone Europe/Gibraltar (UTC+2.0)
Stats Elevation 15 ft / 5 m (AMSL)
Location 36.151200° -5.349850°
Runways 1
Magnetic Variation 0.694° W

METAR

LXGB 270720Z 25004KT CAVOK 18/15 Q1021 NOSIG RMK BLU BLU

Decode

TAF

Not found

Departure Runways

ID Width Length Bearing (true/mag) Surface Threshold Overrun Markings Lighting
09 148 ft / 45 m 5,836 ft / 1,779 m 87.52° / 88.22° ASPHALT 476 ft / 145 m 0 ft / 0 m UK-PREC-APP EDGE THRESHOLD REIL-OMNI
27 148 ft / 45 m 5,836 ft / 1,779 m 267.53° / 268.23° ASPHALT 354 ft / 108 m 0 ft / 0 m UK-PREC-APP EDGE THRESHOLD REIL-OMNI

LPFR

Details ICAO LPFR (FAO)
Name Faro
Region Portugal
Timezone Europe/Lisbon (UTC+1.0)
Stats Elevation 22 ft / 7 m (AMSL)
Location 37.015300° -7.972320°
Runways 1
Magnetic Variation 1.485° W

METAR

LPFR 270700Z 00000KT CAVOK 18/16 Q1021

Decode

TAF

TAF LPFR 270500Z 2706/2806 VRB05KT CAVOK BECMG 2709/2711 21007KT BECMG 2714/2716 26010KT BECMG 2718/2721 30007KT BECMG 2800/2803 36005KT

Decode

Destination Runways

ID Width Length Bearing (true/mag) Surface Threshold Overrun Markings Lighting
10 148 ft / 45 m 8,179 ft / 2,493 m 100.08° / 101.56° ASPHALT 148 ft / 45 m 0 ft / 0 m PREC-APP EDGE THRESHOLD REIL-OMNI
28 148 ft / 45 m 8,179 ft / 2,493 m 280.09° / 281.58° ASPHALT 144 ft / 44 m 0 ft / 0 m PREC-APP EDGE THRESHOLD REIL-OMNI

Approach Navaids

Runway Type Ident Frequency Range Bearing (true/mag) Slope Elevation
28 DME IIF 109.50 MHz 18 nm / 33 km - - 24 ft / 7 m (AMSL)
28 LOC-ILS IIF 109.50 MHz 18 nm / 33 km 280.08° / 281.56 ° - 22 ft / 7 m (AMSL)
28 GS IIF 109.50 MHz 10 nm / 19 km 280.17° / 281.66 ° 3.00° 24 ft / 7 m (AMSL)

Popular Alternatives